Time;durP1;ratioP1;P1;durP2;ratioP2;P2;SDS_P1;SDS_P2;PMS_P1;PMS_P2;Temp;Humidity;BMP_temperature;BMP_pressure;BME280_temperature;BME280_humidity;BME280_pressure;Samples;Min_cycle;Max_cycle;Signal;HPM_P1;HPM_P2
2021/04/18 00:01:48;;;;;;;9.00;7.00;;;4.50;99.90;;;;;;5113898;28;20521;-78
2021/04/18 00:04:14;;;;;;;7.77;7.00;;;4.50;99.90;;;;;;5113834;28;20809;-78
2021/04/18 00:06:42;;;;;;;9.47;6.87;;;4.50;99.90;;;;;;5114363;28;20531;-79
2021/04/18 00:09:11;;;;;;;6.77;6.10;;;4.50;99.90;;;;;;5113796;28;20478;-79
2021/04/18 00:11:37;;;;;;;7.37;6.60;;;4.50;99.90;;;;;;5113829;28;20809;-79
2021/04/18 00:14:05;;;;;;;7.80;6.17;;;4.50;99.90;;;;;;5113713;28;20453;-78
2021/04/18 00:16:32;;;;;;;11.90;6.13;;;4.50;99.90;;;;;;5113816;28;20479;-78
2021/04/18 00:18:58;;;;;;;6.93;6.33;;;4.50;99.90;;;;;;5113813;28;20443;-78
2021/04/18 00:21:24;;;;;;;7.97;6.73;;;4.50;99.90;;;;;;5113774;28;20435;-79
2021/04/18 00:23:52;;;;;;;8.83;6.27;;;4.50;99.90;;;;;;5113716;28;20466;-79
2021/04/18 00:26:18;;;;;;;7.23;6.57;;;4.50;99.90;;;;;;5113304;28;20981;-79
2021/04/18 00:28:45;;;;;;;6.90;5.40;;;4.50;99.90;;;;;;5114569;28;20518;-79
2021/04/18 00:31:11;;;;;;;9.50;6.60;;;4.50;99.90;;;;;;5117840;28;20449;-79
2021/04/18 00:33:37;;;;;;;8.57;5.80;;;4.50;99.90;;;;;;5117748;28;20499;-79
2021/04/18 00:36:04;;;;;;;8.70;6.63;;;4.50;99.90;;;;;;5117673;28;20462;-79
2021/04/18 00:38:31;;;;;;;6.37;5.77;;;4.40;99.90;;;;;;5117676;28;20438;-79
2021/04/18 00:40:58;;;;;;;6.90;5.93;;;4.50;99.90;;;;;;5117314;28;20455;-79
2021/04/18 00:43:24;;;;;;;8.13;6.23;;;4.50;99.90;;;;;;5117266;28;20949;-78
2021/04/18 00:45:51;;;;;;;9.47;7.07;;;4.40;99.90;;;;;;5117607;28;20490;-79
2021/04/18 00:48:17;;;;;;;7.00;6.03;;;4.40;99.90;;;;;;5117384;28;20474;-78
2021/04/18 00:50:43;;;;;;;7.67;6.50;;;4.40;99.90;;;;;;5117453;28;20499;-79
2021/04/18 00:53:09;;;;;;;10.43;6.87;;;4.40;99.90;;;;;;5117435;28;20815;-79
2021/04/18 00:55:39;;;;;;;7.37;6.10;;;4.50;99.90;;;;;;5117315;28;20802;-79
2021/04/18 00:58:07;;;;;;;7.97;7.17;;;4.50;99.90;;;;;;5117607;28;20450;-79
2021/04/18 01:00:35;;;;;;;9.40;6.87;;;4.50;99.90;;;;;;5116989;28;20816;-79
2021/04/18 01:03:01;;;;;;;9.17;7.00;;;4.50;99.90;;;;;;5117217;28;20537;-79
2021/04/18 01:05:27;;;;;;;6.37;5.77;;;4.50;99.90;;;;;;5117126;28;20466;-79
2021/04/18 01:07:54;;;;;;;6.87;6.20;;;4.50;99.90;;;;;;5116600;28;20495;-79
2021/04/18 01:10:20;;;;;;;7.73;6.00;;;4.50;99.90;;;;;;5117094;28;20447;-79
2021/04/18 01:12:47;;;;;;;6.43;5.77;;;4.50;99.90;;;;;;5117027;28;20564;-79
2021/04/18 01:15:16;;;;;;;6.93;5.60;;;4.50;99.90;;;;;;5116959;28;20473;-79
2021/04/18 01:17:43;;;;;;;6.57;5.90;;;4.50;99.90;;;;;;5116657;28;20450;-78
2021/04/18 01:20:14;;;;;;;7.00;5.70;;;4.40;99.90;;;;;;5117195;28;20455;-79
2021/04/18 01:22:41;;;;;;;8.17;6.80;;;4.40;99.90;;;;;;5116680;28;20415;-79
2021/04/18 01:25:08;;;;;;;10.10;6.33;;;4.40;99.90;;;;;;5116497;28;20451;-79
2021/04/18 01:27:36;;;;;;;7.97;6.00;;;4.40;99.90;;;;;;5116729;28;20565;-78
2021/04/18 01:30:05;;;;;;;8.10;5.60;;;4.40;99.90;;;;;;5116649;28;20471;-79
2021/04/18 01:32:31;;;;;;;9.13;6.70;;;4.40;99.90;;;;;;5116343;28;20811;-79
2021/04/18 01:34:58;;;;;;;9.63;5.90;;;4.30;99.90;;;;;;5116239;28;20463;-78
2021/04/18 01:37:25;;;;;;;7.67;5.80;;;4.30;99.90;;;;;;5116583;28;20454;-79
2021/04/18 01:39:52;;;;;;;7.40;6.03;;;4.30;99.90;;;;;;5116033;28;20465;-79
2021/04/18 01:42:19;;;;;;;11.33;6.60;;;4.30;99.90;;;;;;5116133;28;20556;-79
2021/04/18 01:44:46;;;;;;;6.87;6.17;;;4.30;99.90;;;;;;5116380;28;20492;-79
2021/04/18 01:47:12;;;;;;;10.17;5.80;;;4.40;99.90;;;;;;5116273;28;20504;-79
2021/04/18 01:49:38;;;;;;;7.40;6.00;;;4.40;99.90;;;;;;5116240;28;20455;-79
2021/04/18 01:52:05;;;;;;;7.17;6.17;;;4.30;99.90;;;;;;5115967;28;21022;-79
2021/04/18 01:54:31;;;;;;;11.27;5.90;;;4.30;99.90;;;;;;5116748;28;20528;-79
2021/04/18 01:56:58;;;;;;;6.10;5.50;;;4.30;99.90;;;;;;5116138;28;20454;-79
2021/04/18 01:59:25;;;;;;;7.03;6.07;;;4.30;99.90;;;;;;5116043;28;20447;-79
2021/04/18 02:01:51;;;;;;;8.03;5.73;;;4.30;99.90;;;;;;5116105;28;20478;-79
2021/04/18 02:04:20;;;;;;;8.00;5.97;;;4.30;99.90;;;;;;5116006;28;20813;-79
2021/04/18 02:06:46;;;;;;;7.87;6.03;;;4.30;99.90;;;;;;5115764;28;20528;-79
2021/04/18 02:09:12;;;;;;;6.90;6.00;;;4.20;99.90;;;;;;5115870;28;20487;-79
2021/04/18 02:11:39;;;;;;;10.07;7.80;;;4.20;99.90;;;;;;5115594;27;20956;-78
2021/04/18 02:14:07;;;;;;;7.83;6.50;;;4.20;99.90;;;;;;5115794;28;20503;-79
2021/04/18 02:16:34;;;;;;;7.93;6.70;;;4.10;99.90;;;;;;5115824;28;20454;-79
2021/04/18 02:19:00;;;;;;;7.20;6.13;;;4.10;99.90;;;;;;5115728;28;20436;-79
2021/04/18 02:21:26;;;;;;;6.70;5.87;;;4.10;99.90;;;;;;5115733;28;20448;-79
2021/04/18 02:23:53;;;;;;;9.00;7.23;;;4.20;99.90;;;;;;5115620;28;20469;-79
2021/04/18 02:26:19;;;;;;;8.27;6.40;;;4.20;99.90;;;;;;5115540;28;20478;-79
2021/04/18 02:28:46;;;;;;;8.60;7.00;;;4.10;99.90;;;;;;5115478;28;20894;-79
2021/04/18 02:31:13;;;;;;;6.80;6.10;;;4.10;99.90;;;;;;5115498;28;20443;-79
2021/04/18 02:33:39;;;;;;;9.20;6.97;;;4.10;99.90;;;;;;5115451;28;20443;-79
2021/04/18 02:36:07;;;;;;;7.67;6.40;;;4.10;99.90;;;;;;5115337;28;20473;-79
2021/04/18 02:38:33;;;;;;;8.30;6.50;;;4.10;99.90;;;;;;5115342;28;20446;-79
2021/04/18 02:40:59;;;;;;;8.63;6.73;;;4.20;99.90;;;;;;5115262;28;20451;-79
2021/04/18 02:43:25;;;;;;;7.57;6.13;;;4.10;99.90;;;;;;5114913;28;20862;-79
2021/04/18 02:45:52;;;;;;;9.17;6.57;;;4.20;99.90;;;;;;5115171;28;20463;-79
2021/04/18 02:48:19;;;;;;;7.73;6.00;;;4.20;99.90;;;;;;5115097;28;20475;-79
2021/04/18 02:50:45;;;;;;;12.03;6.70;;;4.20;99.90;;;;;;5114781;28;20447;-79
2021/04/18 02:53:11;;;;;;;8.27;6.57;;;4.10;99.90;;;;;;5114628;28;20451;-78
2021/04/18 02:55:38;;;;;;;8.47;7.50;;;4.10;99.90;;;;;;5114971;28;20462;-79
2021/04/18 02:58:04;;;;;;;9.33;7.43;;;4.10;99.90;;;;;;5114980;28;20805;-79
2021/04/18 03:00:30;;;;;;;9.97;7.00;;;4.10;99.90;;;;;;5114891;28;20447;-79
2021/04/18 03:02:57;;;;;;;9.23;7.53;;;4.10;99.90;;;;;;5114916;28;20455;-79
2021/04/18 03:05:24;;;;;;;7.63;6.90;;;4.10;99.90;;;;;;5114742;28;20467;-79
2021/04/18 03:07:50;;;;;;;7.90;6.83;;;4.10;99.90;;;;;;5114317;28;20631;-79
2021/04/18 03:10:17;;;;;;;9.60;7.97;;;4.10;99.90;;;;;;5114740;28;20447;-79
2021/04/18 03:12:43;;;;;;;10.20;8.10;;;4.10;99.90;;;;;;5114735;28;20508;-79
2021/04/18 03:15:10;;;;;;;9.40;7.70;;;4.10;99.90;;;;;;5114321;28;20467;-79
2021/04/18 03:17:37;;;;;;;10.07;8.03;;;4.10;99.90;;;;;;5114679;28;20443;-79
2021/04/18 03:20:05;;;;;;;8.90;7.73;;;4.10;99.90;;;;;;5114368;28;20454;-78
2021/04/18 03:22:32;;;;;;;9.53;7.93;;;4.00;99.90;;;;;;5114541;28;20454;-79
2021/04/18 03:24:59;;;;;;;9.27;7.53;;;4.00;99.90;;;;;;5114086;28;20993;-79
2021/04/18 03:27:25;;;;;;;9.83;8.00;;;4.10;99.90;;;;;;5114380;28;20439;-79
2021/04/18 03:29:51;;;;;;;9.07;7.80;;;4.10;99.90;;;;;;5114456;28;20432;-79
2021/04/18 03:32:18;;;;;;;11.53;7.90;;;4.00;99.90;;;;;;5114380;28;20453;-79
2021/04/18 03:34:44;;;;;;;14.37;8.80;;;4.00;99.90;;;;;;5114269;28;20840;-79
2021/04/18 03:37:10;;;;;;;11.97;7.30;;;3.90;99.90;;;;;;5114265;28;20503;-79
2021/04/18 03:39:38;;;;;;;13.33;8.90;;;3.90;99.90;;;;;;5114272;28;20442;-79
2021/04/18 03:42:04;;;;;;;10.50;8.33;;;3.90;99.90;;;;;;5114209;28;20451;-78
2021/04/18 03:44:31;;;;;;;9.40;8.37;;;3.90;99.90;;;;;;5114102;28;20467;-79
2021/04/18 03:46:57;;;;;;;10.20;8.13;;;3.90;99.90;;;;;;5114129;28;20500;-79
2021/04/18 03:49:23;;;;;;;10.43;8.70;;;3.90;99.90;;;;;;5114004;28;20524;-79
2021/04/18 03:51:49;;;;;;;10.27;7.83;;;3.90;99.90;;;;;;5113775;28;20964;-79
2021/04/18 03:54:16;;;;;;;11.17;8.27;;;3.90;99.90;;;;;;5113966;28;20451;-79
2021/04/18 03:56:43;;;;;;;11.77;8.70;;;3.90;99.90;;;;;;5114044;28;20422;-79
2021/04/18 03:59:09;;;;;;;12.57;8.57;;;3.90;99.90;;;;;;5113666;28;21011;-79
2021/04/18 04:01:35;;;;;;;15.07;9.37;;;3.90;99.90;;;;;;5113676;28;20500;-79
2021/04/18 04:04:05;;;;;;;11.87;9.00;;;3.90;99.90;;;;;;5113768;28;20459;-79
2021/04/18 04:06:31;;;;;;;10.97;8.77;;;4.00;99.90;;;;;;5113382;28;20812;-79
2021/04/18 04:08:57;;;;;;;11.03;8.73;;;4.00;99.90;;;;;;5113835;28;20477;-79
2021/04/18 04:11:23;;;;;;;13.10;8.90;;;4.00;99.90;;;;;;5113828;28;20454;-79
2021/04/18 04:13:50;;;;;;;13.07;8.50;;;3.90;99.90;;;;;;5113867;28;20458;-79
2021/04/18 04:16:17;;;;;;;11.77;8.60;;;4.00;99.90;;;;;;5113749;28;20463;-79
2021/04/18 04:18:43;;;;;;;12.30;9.07;;;4.00;99.90;;;;;;5113825;28;20811;-79
2021/04/18 04:21:09;;;;;;;13.27;8.90;;;4.00;99.90;;;;;;5113410;28;20443;-78
2021/04/18 04:23:35;;;;;;;8.37;7.40;;;4.00;99.90;;;;;;5113369;28;20844;-79
2021/04/18 04:26:02;;;;;;;12.33;9.47;;;4.00;99.90;;;;;;5113618;28;20459;-79
2021/04/18 04:28:28;;;;;;;11.47;8.23;;;4.00;99.90;;;;;;5113650;28;20467;-79
2021/04/18 04:30:55;;;;;;;11.10;8.10;;;4.00;99.90;;;;;;5113468;28;20427;-79
2021/04/18 04:33:22;;;;;;;19.03;9.60;;;3.90;99.90;;;;;;5113330;28;20504;-79
2021/04/18 04:35:48;;;;;;;14.83;9.73;;;3.90;99.90;;;;;;5113538;28;20463;-79
2021/04/18 04:38:14;;;;;;;13.23;8.73;;;3.90;99.90;;;;;;5113564;28;20845;-79
2021/04/18 04:40:40;;;;;;;12.90;9.07;;;3.90;99.90;;;;;;5113276;28;21010;-79
2021/04/18 04:43:07;;;;;;;11.67;8.93;;;4.00;99.90;;;;;;5113552;28;20450;-78
2021/04/18 04:45:33;;;;;;;12.00;8.10;;;4.00;99.90;;;;;;5113151;28;20999;-79
2021/04/18 04:48:00;;;;;;;12.20;8.97;;;4.00;99.90;;;;;;5113398;28;20487;-79
2021/04/18 04:50:26;;;;;;;12.60;8.83;;;4.00;99.90;;;;;;5113239;28;20442;-79
2021/04/18 04:52:54;;;;;;;13.67;9.13;;;4.00;99.90;;;;;;5113480;28;20449;-79
2021/04/18 04:55:20;;;;;;;13.17;10.07;;;4.00;99.90;;;;;;5113355;28;20497;-79
2021/04/18 04:57:46;;;;;;;11.50;8.70;;;4.00;99.90;;;;;;5113404;28;20439;-79
2021/04/18 05:00:14;;;;;;;12.70;9.20;;;4.00;99.90;;;;;;5113359;28;20451;-79
2021/04/18 05:02:40;;;;;;;14.50;9.10;;;4.00;99.90;;;;;;5113401;28;20458;-79
2021/04/18 05:05:09;;;;;;;10.37;8.50;;;4.10;99.90;;;;;;5113051;28;20447;-79
2021/04/18 05:07:35;;;;;;;9.90;8.50;;;4.10;99.90;;;;;;5112923;28;20474;-78
2021/04/18 05:10:02;;;;;;;11.30;8.43;;;4.20;99.90;;;;;;5113313;28;20446;-79
2021/04/18 05:12:28;;;;;;;11.03;8.53;;;4.20;99.90;;;;;;5113336;28;20436;-79
2021/04/18 05:14:54;;;;;;;12.73;9.63;;;4.30;99.90;;;;;;5114298;28;20467;-78
2021/04/18 05:17:20;;;;;;;10.57;8.37;;;4.20;99.90;;;;;;5116989;28;20447;-78
2021/04/18 05:19:47;;;;;;;9.93;7.93;;;4.30;99.90;;;;;;5116617;28;20968;-78
2021/04/18 05:22:14;;;;;;;11.00;9.13;;;4.30;99.90;;;;;;5116577;28;20453;-79
2021/04/18 05:24:40;;;;;;;10.70;8.57;;;4.30;99.90;;;;;;5116491;28;20466;-79
2021/04/18 05:27:07;;;;;;;10.23;8.73;;;4.30;99.90;;;;;;5116787;28;20451;-78
2021/04/18 05:29:33;;;;;;;11.20;8.17;;;4.30;99.90;;;;;;5116679;28;20531;-79
2021/04/18 05:31:59;;;;;;;14.00;8.90;;;4.40;99.90;;;;;;5116382;28;20976;-79
2021/04/18 05:34:26;;;;;;;10.10;9.00;;;4.40;99.90;;;;;;5116348;28;20458;-79
2021/04/18 05:36:52;;;;;;;10.77;8.10;;;4.40;99.90;;;;;;5116245;28;20945;-78
2021/04/18 05:39:19;;;;;;;12.27;7.70;;;4.40;99.90;;;;;;5116232;28;20942;-79
2021/04/18 05:41:45;;;;;;;9.80;8.20;;;4.50;99.90;;;;;;5116493;28;20447;-78
2021/04/18 05:44:14;;;;;;;12.20;8.03;;;4.60;99.90;;;;;;5116127;28;20435;-78
2021/04/18 05:46:41;;;;;;;10.30;8.80;;;4.60;99.90;;;;;;5116392;28;20455;-79
2021/04/18 05:49:07;;;;;;;12.73;8.87;;;4.60;99.90;;;;;;5116368;27;20558;-78
2021/04/18 05:51:33;;;;;;;12.00;8.90;;;4.60;99.90;;;;;;5116367;28;20454;-78
2021/04/18 05:54:00;;;;;;;9.93;8.33;;;4.70;99.90;;;;;;5116267;28;20451;-79
2021/04/18 05:56:27;;;;;;;10.53;8.70;;;4.70;99.90;;;;;;5115928;28;20817;-78
2021/04/18 05:58:53;;;;;;;13.97;8.17;;;4.80;99.90;;;;;;5116403;28;20450;-78
2021/04/18 06:01:23;;;;;;;10.47;7.90;;;4.80;99.90;;;;;;5116095;28;20447;-79
2021/04/18 06:03:49;;;;;;;11.07;9.10;;;4.80;99.90;;;;;;5116278;28;20880;-78
2021/04/18 06:06:16;;;;;;;8.33;7.37;;;4.80;99.90;;;;;;5116197;28;20467;-78
2021/04/18 06:08:42;;;;;;;11.60;8.67;;;4.80;99.90;;;;;;5115745;28;21102;-79
2021/04/18 06:11:08;;;;;;;9.23;7.93;;;4.80;99.90;;;;;;5115978;28;20453;-78
2021/04/18 06:13:36;;;;;;;13.13;9.23;;;4.70;99.90;;;;;;5115927;28;20820;-78
2021/04/18 06:16:02;;;;;;;10.60;8.23;;;4.70;99.90;;;;;;5115484;28;21008;-78
2021/04/18 06:18:28;;;;;;;10.57;7.87;;;4.70;99.90;;;;;;5115821;28;20443;-78
2021/04/18 06:20:54;;;;;;;11.60;8.47;;;4.70;99.90;;;;;;5115373;28;20844;-78
2021/04/18 06:23:22;;;;;;;11.70;8.30;;;4.80;99.90;;;;;;5115373;28;20808;-78
2021/04/18 06:25:48;;;;;;;10.80;8.20;;;4.80;99.90;;;;;;5115255;28;20478;-78
2021/04/18 06:28:15;;;;;;;9.03;8.13;;;4.90;99.90;;;;;;5115560;28;20467;-78
2021/04/18 06:30:42;;;;;;;12.53;8.90;;;4.90;99.90;;;;;;5115580;28;20442;-78
2021/04/18 06:33:09;;;;;;;9.93;8.20;;;5.00;99.90;;;;;;5115193;28;20953;-78
2021/04/18 06:35:35;;;;;;;11.90;8.67;;;5.10;99.90;;;;;;5115362;28;20494;-78
2021/04/18 06:38:01;;;;;;;10.10;8.07;;;5.20;99.90;;;;;;5115069;28;20969;-78
2021/04/18 06:40:28;;;;;;;13.60;8.53;;;5.20;99.90;;;;;;5115327;27;20454;-78
2021/04/18 06:42:55;;;;;;;10.07;8.13;;;5.20;99.90;;;;;;5114996;28;20949;-78
2021/04/18 06:45:22;;;;;;;11.37;8.90;;;5.40;99.90;;;;;;5114912;28;20457;-78
2021/04/18 06:47:50;;;;;;;11.40;8.60;;;5.40;99.90;;;;;;5115055;28;20454;-78
2021/04/18 06:50:17;;;;;;;9.97;8.17;;;5.40;99.90;;;;;;5115175;28;20449;-78
2021/04/18 06:52:44;;;;;;;10.00;7.27;;;5.60;99.90;;;;;;5115689;28;20452;-78
2021/04/18 06:55:11;;;;;;;8.93;8.00;;;5.60;99.90;;;;;;5115123;28;20471;-78
2021/04/18 06:57:38;;;;;;;11.00;8.97;;;5.60;99.90;;;;;;5114730;28;20447;-78
2021/04/18 07:00:06;;;;;;;9.60;8.60;;;5.60;99.90;;;;;;5115129;28;20443;-78
2021/04/18 07:02:33;;;;;;;10.30;8.20;;;5.60;99.90;;;;;;5114933;28;20455;-78
2021/04/18 07:05:04;;;;;;;9.77;8.20;;;5.60;99.90;;;;;;5114802;28;20471;-78
2021/04/18 07:07:32;;;;;;;9.00;7.50;;;5.60;99.90;;;;;;5114467;28;20483;-78
2021/04/18 07:09:59;;;;;;;10.33;9.23;;;5.60;99.90;;;;;;5114753;28;20459;-78
2021/04/18 07:12:26;;;;;;;10.60;8.60;;;5.70;99.90;;;;;;5114805;28;20427;-78
2021/04/18 07:14:53;;;;;;;9.37;8.47;;;5.70;99.90;;;;;;5114648;28;20463;-78
2021/04/18 07:17:19;;;;;;;12.40;8.10;;;5.70;99.90;;;;;;5114646;28;20431;-78
2021/04/18 07:19:49;;;;;;;11.50;9.27;;;5.80;99.90;;;;;;5114632;28;20447;-78
2021/04/18 07:22:17;;;;;;;11.53;7.60;;;5.90;99.90;;;;;;5114327;28;20996;-78
2021/04/18 07:24:52;;;;;;;10.13;8.23;;;6.00;99.90;;;;;;5115066;28;20807;-78
2021/04/18 07:27:19;;;;;;;11.57;7.97;;;6.10;99.90;;;;;;5114551;28;20427;-78
2021/04/18 07:29:54;;;;;;;11.53;8.67;;;6.20;99.90;;;;;;5114440;28;20474;-78
2021/04/18 07:32:21;;;;;;;9.77;7.20;;;6.30;99.90;;;;;;5114412;28;20457;-78
2021/04/18 07:34:48;;;;;;;10.30;8.40;;;6.50;99.90;;;;;;5114293;28;20467;-78
2021/04/18 07:37:17;;;;;;;14.73;9.53;;;6.70;99.90;;;;;;5113923;28;20427;-78
2021/04/18 07:39:45;;;;;;;12.77;8.43;;;6.80;99.90;;;;;;5114019;28;20901;-78
2021/04/18 07:42:30;;;;;;;10.30;7.70;;;6.80;99.90;;;;;;5114261;28;20488;-78
2021/04/18 07:44:58;;;;;;;9.70;8.37;;;6.80;99.90;;;;;;5113782;28;20475;-78
2021/04/18 07:47:26;;;;;;;12.50;8.73;;;6.80;99.90;;;;;;5114100;28;20447;-78
2021/04/18 07:49:52;;;;;;;15.17;10.17;;;6.80;99.90;;;;;;5114027;28;20483;-78
2021/04/18 07:52:19;;;;;;;13.27;8.27;;;6.70;99.90;;;;;;5114048;28;20439;-78
2021/04/18 07:54:46;;;;;;;10.67;8.50;;;6.70;99.90;;;;;;5113678;28;20475;-78
2021/04/18 07:57:12;;;;;;;11.47;8.23;;;6.80;99.90;;;;;;5113989;28;20462;-78
2021/04/18 07:59:39;;;;;;;12.20;9.10;;;7.00;99.90;;;;;;5113662;28;20945;-79
2021/04/18 08:02:06;;;;;;;10.57;7.87;;;7.30;99.90;;;;;;5113637;28;21065;-78
2021/04/18 08:04:32;;;;;;;13.27;7.57;;;7.20;99.90;;;;;;5113529;28;20845;-78
2021/04/18 08:07:01;;;;;;;11.10;7.57;;;7.40;99.90;;;;;;5113635;28;20833;-78
2021/04/18 08:09:28;;;;;;;10.37;8.13;;;7.40;99.90;;;;;;5113483;28;20573;-78
2021/04/18 08:12:12;;;;;;;10.40;7.80;;;7.30;99.90;;;;;;5113861;28;20442;-78
2021/04/18 08:14:40;;;;;;;11.27;8.00;;;7.30;99.90;;;;;;5113466;28;20463;-78
2021/04/18 08:17:09;;;;;;;10.97;9.50;;;7.20;99.90;;;;;;5113579;28;20446;-78
2021/04/18 08:19:36;;;;;;;15.10;9.60;;;7.10;99.90;;;;;;5113466;28;20447;-78
2021/04/18 08:22:03;;;;;;;10.03;7.33;;;6.90;99.90;;;;;;5112082;28;20476;-78
2021/04/18 08:24:38;;;;;;;13.50;7.97;;;7.00;99.90;;;;;;5113584;28;20463;-78
2021/04/18 08:27:06;;;;;;;10.63;7.87;;;6.90;99.90;;;;;;5113744;28;20422;-78
2021/04/18 08:29:34;;;;;;;9.87;7.60;;;6.90;99.90;;;;;;5113335;28;20490;-78
2021/04/18 08:32:08;;;;;;;11.63;8.20;;;6.90;99.90;;;;;;5113640;28;20447;-78
2021/04/18 08:34:36;;;;;;;11.53;8.40;;;6.80;99.90;;;;;;5113634;28;20558;-78
2021/04/18 08:37:04;;;;;;;15.70;7.43;;;6.80;99.90;;;;;;5113308;28;20472;-78
2021/04/18 08:39:34;;;;;;;12.30;8.80;;;6.80;99.90;;;;;;5113317;28;21016;-79
2021/04/18 08:42:03;;;;;;;9.73;8.40;;;6.90;99.90;;;;;;5113649;28;20427;-78
2021/04/18 08:44:41;;;;;;;9.13;6.73;;;6.80;99.90;;;;;;5113521;28;20459;-78
2021/04/18 08:47:09;;;;;;;10.33;7.70;;;6.70;99.90;;;;;;5113281;28;20967;-78
2021/04/18 08:49:37;;;;;;;7.97;7.07;;;6.80;99.90;;;;;;5113795;28;21000;-79
2021/04/18 08:52:06;;;;;;;11.00;7.20;;;6.70;99.90;;;;;;5117492;28;20450;-76
2021/04/18 08:54:34;;;;;;;9.40;7.00;;;6.60;99.90;;;;;;5117058;28;20989;-78
2021/04/18 08:57:05;;;;;;;8.50;7.60;;;6.60;99.90;;;;;;5117256;28;20466;-79
2021/04/18 08:59:31;;;;;;;9.10;7.57;;;6.60;99.90;;;;;;5117400;28;20575;-79
2021/04/18 09:02:01;;;;;;;11.13;8.13;;;6.60;99.90;;;;;;5117032;28;20906;-79
2021/04/18 09:04:30;;;;;;;10.07;7.43;;;6.60;99.90;;;;;;5117202;28;20551;-79
2021/04/18 09:06:56;;;;;;;13.77;8.23;;;6.60;99.90;;;;;;5117011;28;20502;-79
2021/04/18 09:09:23;;;;;;;11.50;7.43;;;6.60;99.90;;;;;;5117143;28;20542;-78
2021/04/18 09:11:49;;;;;;;8.67;7.77;;;6.50;99.90;;;;;;5117156;28;20431;-79
2021/04/18 09:14:22;;;;;;;10.23;7.10;;;6.60;99.90;;;;;;5116783;28;20438;-78
2021/04/18 09:16:49;;;;;;;8.63;7.67;;;6.60;99.90;;;;;;5117084;28;20436;-79
2021/04/18 09:19:28;;;;;;;10.00;7.87;;;6.70;99.90;;;;;;5116998;28;20453;-79
2021/04/18 09:22:04;;;;;;;10.57;8.50;;;6.90;99.90;;;;;;5116679;28;20431;-78
2021/04/18 09:24:31;;;;;;;9.00;7.57;;;7.10;99.90;;;;;;5116886;28;20523;-79
2021/04/18 09:27:00;;;;;;;9.90;7.87;;;7.30;99.90;;;;;;5116527;27;20428;-79
2021/04/18 09:29:28;;;;;;;13.53;8.60;;;7.50;99.90;;;;;;5116801;28;20463;-78
2021/04/18 09:32:00;;;;;;;7.27;6.57;;;7.50;99.90;;;;;;5116737;28;20435;-79
2021/04/18 09:34:27;;;;;;;8.20;7.40;;;7.60;99.90;;;;;;5116828;28;20551;-78
2021/04/18 09:36:55;;;;;;;13.80;9.47;;;7.60;99.90;;;;;;5116678;28;20419;-78
2021/04/18 09:39:26;;;;;;;9.30;6.70;;;7.70;99.90;;;;;;5116616;28;20420;-79
2021/04/18 09:41:54;;;;;;;8.30;7.33;;;7.80;99.90;;;;;;5116249;28;20453;-79
2021/04/18 09:44:28;;;;;;;8.37;7.40;;;7.80;99.90;;;;;;5116417;28;20435;-79
2021/04/18 09:46:58;;;;;;;9.20;7.07;;;7.80;99.90;;;;;;5116459;28;20431;-78
2021/04/18 09:49:25;;;;;;;11.17;6.73;;;8.00;99.90;;;;;;5116272;28;20471;-78
2021/04/18 09:51:57;;;;;;;11.00;7.73;;;8.20;99.90;;;;;;5116625;28;20431;-78
2021/04/18 09:54:28;;;;;;;11.70;8.07;;;8.40;99.90;;;;;;5116233;28;20435;-79
2021/04/18 09:57:18;;;;;;;12.50;7.27;;;8.50;99.90;;;;;;5116317;28;20431;-77
2021/04/18 09:59:44;;;;;;;12.13;7.00;;;8.60;99.90;;;;;;5116199;27;20427;-77
2021/04/18 10:02:13;;;;;;;11.07;8.03;;;8.60;99.90;;;;;;5115764;28;20424;-77
2021/04/18 10:04:40;;;;;;;9.40;7.57;;;8.50;99.90;;;;;;5115952;28;20551;-77
2021/04/18 10:07:07;;;;;;;10.70;8.50;;;8.50;99.90;;;;;;5115490;28;20973;-78
2021/04/18 10:09:50;;;;;;;13.93;7.37;;;8.50;99.90;;;;;;5115981;28;20569;-78
2021/04/18 10:12:16;;;;;;;11.53;7.70;;;8.50;99.90;;;;;;5115696;28;20929;-78
2021/04/18 10:14:43;;;;;;;10.57;7.77;;;8.50;99.90;;;;;;5115884;28;20462;-77
2021/04/18 10:17:09;;;;;;;8.03;6.83;;;8.60;99.90;;;;;;5115568;28;20452;-77
2021/04/18 10:19:50;;;;;;;11.73;6.17;;;8.50;99.90;;;;;;5116010;27;20432;-75
2021/04/18 10:22:16;;;;;;;9.47;7.10;;;8.60;99.90;;;;;;5115495;27;20419;-75
2021/04/18 10:24:44;;;;;;;10.53;7.07;;;8.50;99.90;;;;;;5115660;27;20455;-75
2021/04/18 10:27:12;;;;;;;14.30;8.73;;;8.50;99.90;;;;;;5115685;28;20438;-75
2021/04/18 10:29:40;;;;;;;10.83;6.73;;;8.50;99.90;;;;;;5115567;28;20467;-75
2021/04/18 10:32:07;;;;;;;9.00;8.10;;;8.50;99.90;;;;;;5115516;28;20438;-75
2021/04/18 10:34:33;;;;;;;8.10;6.30;;;8.60;99.90;;;;;;5115410;28;20458;-75
2021/04/18 10:37:01;;;;;;;8.60;6.63;;;8.70;99.90;;;;;;5116286;28;20822;-75
2021/04/18 10:39:28;;;;;;;9.70;7.70;;;8.70;99.90;;;;;;5115160;28;20431;-75
2021/04/18 10:41:54;;;;;;;12.37;7.07;;;8.70;99.90;;;;;;5115425;28;20461;-75
2021/04/18 10:44:22;;;;;;;10.73;7.77;;;8.70;99.90;;;;;;5114942;28;20909;-75
2021/04/18 10:46:50;;;;;;;12.53;7.13;;;8.70;99.90;;;;;;5115326;28;20476;-75
2021/04/18 10:49:17;;;;;;;8.10;5.97;;;8.80;99.90;;;;;;5114893;28;20463;-75
2021/04/18 10:51:43;;;;;;;7.33;6.30;;;8.80;99.90;;;;;;5115213;28;20846;-75
2021/04/18 10:54:10;;;;;;;8.00;6.70;;;8.70;99.90;;;;;;5115060;28;20428;-75
2021/04/18 10:56:37;;;;;;;11.73;7.97;;;8.70;99.90;;;;;;5115093;28;20431;-76
2021/04/18 10:59:04;;;;;;;12.13;7.40;;;8.90;99.90;;;;;;5115039;28;20501;-75
2021/04/18 11:01:30;;;;;;;11.23;7.30;;;8.90;99.90;;;;;;5115009;28;20435;-75
2021/04/18 11:03:57;;;;;;;7.07;6.23;;;9.00;99.90;;;;;;5114884;28;20451;-75
2021/04/18 11:06:23;;;;;;;11.47;7.03;;;8.90;99.90;;;;;;5114637;28;20478;-75
2021/04/18 11:08:50;;;;;;;14.20;7.00;;;8.80;99.90;;;;;;5114758;28;20471;-75
2021/04/18 11:11:18;;;;;;;8.53;6.43;;;8.80;99.90;;;;;;5114483;28;20974;-75
2021/04/18 11:13:45;;;;;;;9.37;7.10;;;8.70;99.90;;;;;;5114095;28;20473;-75
2021/04/18 11:16:11;;;;;;;10.47;7.10;;;8.70;99.90;;;;;;5114686;28;20851;-75
2021/04/18 11:18:37;;;;;;;12.63;8.13;;;8.60;99.90;;;;;;5114640;28;20512;-75
2021/04/18 11:21:04;;;;;;;10.10;7.20;;;8.70;99.90;;;;;;5114358;28;20431;-75
2021/04/18 11:23:30;;;;;;;9.57;6.63;;;8.80;99.90;;;;;;5114613;28;20435;-75
2021/04/18 11:25:56;;;;;;;10.17;7.10;;;8.70;99.90;;;;;;5114487;28;20467;-75
2021/04/18 11:28:24;;;;;;;10.17;7.37;;;8.70;99.90;;;;;;5558635;22;20501;-83
2021/04/18 11:30:50;;;;;;;13.83;7.03;;;8.70;99.90;;;;;;5073669;28;20440;-83
2021/04/18 11:33:16;;;;;;;8.80;7.00;;;8.70;99.90;;;;;;5073458;28;20856;-85
2021/04/18 11:38:18;;;;;;;8.53;6.77;;;8.70;99.90;;;;;;5721684;22;20864;-84
2021/04/18 11:40:44;;;;;;;11.50;7.43;;;8.80;99.90;;;;;;5073394;28;20452;-84
2021/04/18 11:43:11;;;;;;;10.27;6.60;;;8.80;99.90;;;;;;5073693;28;20474;-84
2021/04/18 11:45:38;;;;;;;10.33;6.80;;;8.90;99.90;;;;;;5073547;28;20473;-83
2021/04/18 11:48:05;;;;;;;10.67;6.73;;;8.80;99.90;;;;;;5073429;28;20525;-84
2021/04/18 11:50:34;;;;;;;10.70;7.07;;;8.90;99.90;;;;;;5073516;28;20465;-84
2021/04/18 11:53:00;;;;;;;9.60;7.17;;;9.10;99.90;;;;;;5073253;28;20451;-84
2021/04/18 11:55:28;;;;;;;8.57;6.77;;;9.40;99.90;;;;;;5073395;28;20480;-84
2021/04/18 11:57:55;;;;;;;9.20;7.10;;;9.60;99.90;;;;;;5073429;28;20453;-84
2021/04/18 12:00:22;;;;;;;8.43;6.43;;;9.70;99.90;;;;;;5073452;28;20464;-84
2021/04/18 12:02:50;;;;;;;9.77;6.20;;;9.90;99.90;;;;;;5073490;28;20437;-84
2021/04/18 12:05:17;;;;;;;8.57;7.13;;;10.00;99.90;;;;;;5073266;28;20464;-84
2021/04/18 12:07:44;;;;;;;8.33;6.03;;;10.20;99.90;;;;;;5073485;28;20444;-85
2021/04/18 12:10:11;;;;;;;10.63;6.80;;;10.30;99.90;;;;;;5072945;28;21021;-85
2021/04/18 12:12:38;;;;;;;7.60;5.90;;;10.40;99.90;;;;;;5073477;28;20463;-84
2021/04/18 12:15:06;;;;;;;6.40;5.80;;;10.20;99.90;;;;;;5073238;28;20469;-85
2021/04/18 12:17:34;;;;;;;8.17;6.40;;;10.30;98.20;;;;;;5073432;28;20828;-82
2021/04/18 12:20:01;;;;;;;7.40;5.83;;;10.20;98.50;;;;;;5073353;28;20445;-82
2021/04/18 12:22:27;;;;;;;7.10;6.40;;;10.10;99.30;;;;;;5073280;28;20445;-83
2021/04/18 12:24:54;;;;;;;8.97;6.70;;;10.00;99.30;;;;;;5076010;28;20475;-83
2021/04/18 12:27:20;;;;;;;8.30;6.57;;;10.00;99.90;;;;;;5077044;28;20432;-83
2021/04/18 12:29:46;;;;;;;8.73;6.80;;;9.90;99.90;;;;;;5077158;28;20510;-83
2021/04/18 12:32:12;;;;;;;7.10;6.40;;;10.10;99.10;;;;;;5077242;28;20453;-83
2021/04/18 12:34:39;;;;;;;7.30;6.17;;;10.10;97.90;;;;;;5076864;28;20486;-82
2021/04/18 12:37:07;;;;;;;7.00;5.50;;;10.00;99.00;;;;;;5076881;28;20506;-86
2021/04/18 12:39:34;;;;;;;8.40;6.70;;;9.90;99.50;;;;;;5076672;28;20506;-85
2021/04/18 12:42:01;;;;;;;7.93;6.33;;;9.90;99.30;;;;;;5077381;28;20521;-88
2021/04/18 12:44:27;;;;;;;8.70;7.13;;;9.90;99.70;;;;;;5077794;28;20515;-85
2021/04/18 12:46:54;;;;;;;9.10;6.40;;;9.90;99.00;;;;;;5077004;28;20441;-83
2021/04/18 12:49:20;;;;;;;8.80;6.60;;;9.80;99.70;;;;;;5076768;28;20506;-86
2021/04/18 12:51:47;;;;;;;6.67;5.90;;;9.90;99.40;;;;;;5076969;28;20444;-85
2021/04/18 12:54:14;;;;;;;7.57;6.33;;;10.00;98.40;;;;;;5076737;28;20441;-85